sensor_id;sensor_type;location;lat;lon;timestamp;P1;durP1;ratioP1;P2;durP2;ratioP2
80926;SDS011;70385;44.538;18.532;2024-02-14T00:07:19;177.20;;;73.22;;
80926;SDS011;70385;44.538;18.532;2024-02-14T00:24:43;195.63;;;81.65;;
80926;SDS011;70385;44.538;18.532;2024-02-14T00:27:10;228.30;;;94.88;;
80926;SDS011;70385;44.538;18.532;2024-02-14T00:29:36;230.85;;;98.22;;
80926;SDS011;70385;44.538;18.532;2024-02-14T00:32:02;259.13;;;101.60;;
80926;SDS011;70385;44.538;18.532;2024-02-14T00:34:28;256.48;;;104.78;;
80926;SDS011;70385;44.538;18.532;2024-02-14T00:36:55;265.63;;;105.68;;
80926;SDS011;70385;44.538;18.532;2024-02-14T00:39:31;248.98;;;97.60;;
80926;SDS011;70385;44.538;18.532;2024-02-14T00:49:08;199.32;;;80.10;;
80926;SDS011;70385;44.538;18.532;2024-02-14T00:51:38;247.80;;;96.95;;
80926;SDS011;70385;44.538;18.532;2024-02-14T00:54:05;233.88;;;89.13;;
80926;SDS011;70385;44.538;18.532;2024-02-14T00:56:44;295.98;;;117.90;;
80926;SDS011;70385;44.538;18.532;2024-02-14T00:59:10;221.97;;;91.57;;
80926;SDS011;70385;44.538;18.532;2024-02-14T01:01:36;202.73;;;83.15;;
80926;SDS011;70385;44.538;18.532;2024-02-14T01:04:02;148.70;;;65.40;;
80926;SDS011;70385;44.538;18.532;2024-02-14T01:06:30;149.60;;;67.95;;
80926;SDS011;70385;44.538;18.532;2024-02-14T01:08:56;135.68;;;59.90;;
80926;SDS011;70385;44.538;18.532;2024-02-14T01:11:22;139.43;;;61.33;;
80926;SDS011;70385;44.538;18.532;2024-02-14T01:13:48;142.10;;;61.50;;
80926;SDS011;70385;44.538;18.532;2024-02-14T01:16:14;206.88;;;82.80;;
80926;SDS011;70385;44.538;18.532;2024-02-14T01:18:39;177.05;;;73.78;;
80926;SDS011;70385;44.538;18.532;2024-02-14T01:21:06;170.85;;;71.55;;
80926;SDS011;70385;44.538;18.532;2024-02-14T01:23:32;179.63;;;75.10;;
80926;SDS011;70385;44.538;18.532;2024-02-14T01:25:58;127.10;;;56.22;;
80926;SDS011;70385;44.538;18.532;2024-02-14T01:28:27;96.07;;;45.08;;
80926;SDS011;70385;44.538;18.532;2024-02-14T01:30:53;114.68;;;53.70;;
80926;SDS011;70385;44.538;18.532;2024-02-14T01:33:19;121.63;;;56.75;;
80926;SDS011;70385;44.538;18.532;2024-02-14T01:35:45;161.15;;;72.35;;
80926;SDS011;70385;44.538;18.532;2024-02-14T01:38:11;168.05;;;74.90;;
80926;SDS011;70385;44.538;18.532;2024-02-14T01:40:38;144.48;;;66.13;;
80926;SDS011;70385;44.538;18.532;2024-02-14T01:43:07;158.30;;;69.88;;
80926;SDS011;70385;44.538;18.532;2024-02-14T01:45:33;136.48;;;66.15;;
80926;SDS011;70385;44.538;18.532;2024-02-14T01:48:00;144.05;;;62.80;;
80926;SDS011;70385;44.538;18.532;2024-02-14T01:50:27;125.55;;;59.90;;
80926;SDS011;70385;44.538;18.532;2024-02-14T01:53:00;132.48;;;60.33;;
80926;SDS011;70385;44.538;18.532;2024-02-14T01:55:27;138.50;;;65.15;;
80926;SDS011;70385;44.538;18.532;2024-02-14T01:57:54;129.63;;;62.05;;
80926;SDS011;70385;44.538;18.532;2024-02-14T02:00:20;113.00;;;54.17;;
80926;SDS011;70385;44.538;18.532;2024-02-14T02:02:46;111.15;;;53.38;;
80926;SDS011;70385;44.538;18.532;2024-02-14T02:05:18;123.22;;;55.17;;
80926;SDS011;70385;44.538;18.532;2024-02-14T02:07:44;140.75;;;63.10;;
80926;SDS011;70385;44.538;18.532;2024-02-14T02:10:13;152.02;;;68.00;;
80926;SDS011;70385;44.538;18.532;2024-02-14T02:12:40;128.57;;;59.85;;
80926;SDS011;70385;44.538;18.532;2024-02-14T02:15:07;139.73;;;63.42;;
80926;SDS011;70385;44.538;18.532;2024-02-14T02:17:38;153.60;;;67.13;;
80926;SDS011;70385;44.538;18.532;2024-02-14T02:20:05;149.82;;;67.65;;
80926;SDS011;70385;44.538;18.532;2024-02-14T02:22:33;148.63;;;66.22;;
80926;SDS011;70385;44.538;18.532;2024-02-14T02:25:01;153.15;;;70.10;;
80926;SDS011;70385;44.538;18.532;2024-02-14T02:27:33;146.55;;;65.43;;
80926;SDS011;70385;44.538;18.532;2024-02-14T02:30:06;162.30;;;67.95;;
80926;SDS011;70385;44.538;18.532;2024-02-14T02:32:36;161.38;;;68.18;;
80926;SDS011;70385;44.538;18.532;2024-02-14T02:35:03;144.55;;;63.78;;
80926;SDS011;70385;44.538;18.532;2024-02-14T02:40:22;165.55;;;63.78;;
80926;SDS011;70385;44.538;18.532;2024-02-14T02:42:48;168.45;;;60.22;;
80926;SDS011;70385;44.538;18.532;2024-02-14T02:45:16;164.23;;;63.20;;
80926;SDS011;70385;44.538;18.532;2024-02-14T02:47:42;108.47;;;40.33;;
80926;SDS011;70385;44.538;18.532;2024-02-14T02:50:09;85.30;;;35.92;;
80926;SDS011;70385;44.538;18.532;2024-02-14T02:52:38;83.03;;;32.42;;
80926;SDS011;70385;44.538;18.532;2024-02-14T02:55:06;65.53;;;28.85;;
80926;SDS011;70385;44.538;18.532;2024-02-14T02:57:35;53.25;;;23.90;;
80926;SDS011;70385;44.538;18.532;2024-02-14T03:00:02;53.00;;;24.35;;
80926;SDS011;70385;44.538;18.532;2024-02-14T03:02:33;45.17;;;21.58;;
80926;SDS011;70385;44.538;18.532;2024-02-14T03:04:59;40.95;;;21.00;;
80926;SDS011;70385;44.538;18.532;2024-02-14T03:07:26;45.63;;;21.65;;
80926;SDS011;70385;44.538;18.532;2024-02-14T03:09:52;40.95;;;20.48;;
80926;SDS011;70385;44.538;18.532;2024-02-14T03:12:20;40.13;;;19.02;;
80926;SDS011;70385;44.538;18.532;2024-02-14T03:14:51;37.22;;;19.90;;
80926;SDS011;70385;44.538;18.532;2024-02-14T03:17:17;37.63;;;19.27;;
80926;SDS011;70385;44.538;18.532;2024-02-14T03:19:47;38.63;;;19.40;;
80926;SDS011;70385;44.538;18.532;2024-02-14T03:22:14;45.63;;;22.23;;
80926;SDS011;70385;44.538;18.532;2024-02-14T03:24:39;42.88;;;21.63;;
80926;SDS011;70385;44.538;18.532;2024-02-14T03:27:12;45.63;;;23.20;;
80926;SDS011;70385;44.538;18.532;2024-02-14T03:29:38;55.92;;;27.35;;
80926;SDS011;70385;44.538;18.532;2024-02-14T03:32:05;65.47;;;25.25;;
80926;SDS011;70385;44.538;18.532;2024-02-14T03:34:33;86.72;;;33.05;;
80926;SDS011;70385;44.538;18.532;2024-02-14T03:37:13;85.50;;;33.22;;
80926;SDS011;70385;44.538;18.532;2024-02-14T03:39:40;74.97;;;31.65;;
80926;SDS011;70385;44.538;18.532;2024-02-14T03:42:11;75.28;;;27.42;;
80926;SDS011;70385;44.538;18.532;2024-02-14T03:44:37;62.03;;;26.58;;
80926;SDS011;70385;44.538;18.532;2024-02-14T03:47:03;63.55;;;26.35;;
80926;SDS011;70385;44.538;18.532;2024-02-14T03:49:30;53.10;;;24.70;;
80926;SDS011;70385;44.538;18.532;2024-02-14T03:51:57;64.20;;;26.98;;
80926;SDS011;70385;44.538;18.532;2024-02-14T03:54:26;60.15;;;26.90;;
80926;SDS011;70385;44.538;18.532;2024-02-14T03:56:57;67.88;;;28.08;;
80926;SDS011;70385;44.538;18.532;2024-02-14T03:59:24;73.68;;;28.33;;
80926;SDS011;70385;44.538;18.532;2024-02-14T04:01:50;66.10;;;28.33;;
80926;SDS011;70385;44.538;18.532;2024-02-14T04:04:19;66.85;;;28.02;;
80926;SDS011;70385;44.538;18.532;2024-02-14T04:06:45;70.68;;;29.70;;
80926;SDS011;70385;44.538;18.532;2024-02-14T04:09:13;57.78;;;26.90;;
80926;SDS011;70385;44.538;18.532;2024-02-14T04:11:39;74.03;;;28.65;;
80926;SDS011;70385;44.538;18.532;2024-02-14T04:14:06;70.20;;;29.05;;
80926;SDS011;70385;44.538;18.532;2024-02-14T04:16:32;60.42;;;26.48;;
80926;SDS011;70385;44.538;18.532;2024-02-14T04:18:59;53.88;;;23.05;;
80926;SDS011;70385;44.538;18.532;2024-02-14T04:21:25;78.57;;;28.98;;
80926;SDS011;70385;44.538;18.532;2024-02-14T04:23:51;73.50;;;29.02;;
80926;SDS011;70385;44.538;18.532;2024-02-14T04:26:20;95.55;;;33.22;;
80926;SDS011;70385;44.538;18.532;2024-02-14T04:28:46;84.43;;;32.08;;
80926;SDS011;70385;44.538;18.532;2024-02-14T04:31:12;73.88;;;33.60;;
80926;SDS011;70385;44.538;18.532;2024-02-14T04:33:38;89.78;;;34.55;;
80926;SDS011;70385;44.538;18.532;2024-02-14T04:56:22;87.93;;;35.42;;
80926;SDS011;70385;44.538;18.532;2024-02-14T04:58:51;91.38;;;33.75;;
80926;SDS011;70385;44.538;18.532;2024-02-14T05:01:21;90.63;;;35.50;;
80926;SDS011;70385;44.538;18.532;2024-02-14T05:03:47;78.40;;;30.45;;
80926;SDS011;70385;44.538;18.532;2024-02-14T05:06:14;67.28;;;25.80;;
80926;SDS011;70385;44.538;18.532;2024-02-14T05:08:40;71.50;;;26.65;;
80926;SDS011;70385;44.538;18.532;2024-02-14T05:11:08;56.95;;;25.80;;
80926;SDS011;70385;44.538;18.532;2024-02-14T05:13:34;67.45;;;27.58;;
80926;SDS011;70385;44.538;18.532;2024-02-14T05:16:04;59.65;;;23.83;;
80926;SDS011;70385;44.538;18.532;2024-02-14T05:18:30;63.58;;;27.88;;
80926;SDS011;70385;44.538;18.532;2024-02-14T05:20:56;69.97;;;26.95;;
80926;SDS011;70385;44.538;18.532;2024-02-14T05:23:23;56.00;;;25.80;;
80926;SDS011;70385;44.538;18.532;2024-02-14T05:25:49;39.25;;;19.65;;
80926;SDS011;70385;44.538;18.532;2024-02-14T05:28:16;37.78;;;19.08;;
80926;SDS011;70385;44.538;18.532;2024-02-14T05:30:44;35.20;;;18.23;;
80926;SDS011;70385;44.538;18.532;2024-02-14T05:33:10;30.67;;;17.77;;
80926;SDS011;70385;44.538;18.532;2024-02-14T05:35:36;31.85;;;18.27;;
80926;SDS011;70385;44.538;18.532;2024-02-14T05:38:02;32.47;;;17.30;;
80926;SDS011;70385;44.538;18.532;2024-02-14T05:40:30;32.40;;;16.55;;
80926;SDS011;70385;44.538;18.532;2024-02-14T05:42:56;27.95;;;18.17;;
80926;SDS011;70385;44.538;18.532;2024-02-14T05:45:22;41.35;;;21.13;;
80926;SDS011;70385;44.538;18.532;2024-02-14T05:47:51;56.17;;;23.50;;
80926;SDS011;70385;44.538;18.532;2024-02-14T05:50:17;63.00;;;26.35;;
80926;SDS011;70385;44.538;18.532;2024-02-14T05:52:44;58.63;;;24.00;;
80926;SDS011;70385;44.538;18.532;2024-02-14T05:55:19;62.78;;;27.90;;
80926;SDS011;70385;44.538;18.532;2024-02-14T05:57:54;63.08;;;26.48;;
80926;SDS011;70385;44.538;18.532;2024-02-14T06:00:26;71.18;;;31.23;;
80926;SDS011;70385;44.538;18.532;2024-02-14T06:02:52;67.25;;;27.92;;
80926;SDS011;70385;44.538;18.532;2024-02-14T06:05:21;60.05;;;28.92;;
80926;SDS011;70385;44.538;18.532;2024-02-14T06:07:50;64.43;;;30.67;;
80926;SDS011;70385;44.538;18.532;2024-02-14T06:10:19;73.65;;;32.78;;
80926;SDS011;70385;44.538;18.532;2024-02-14T06:12:51;74.93;;;34.97;;
80926;SDS011;70385;44.538;18.532;2024-02-14T06:15:24;75.43;;;34.33;;
80926;SDS011;70385;44.538;18.532;2024-02-14T06:17:53;68.90;;;34.72;;
80926;SDS011;70385;44.538;18.532;2024-02-14T06:20:32;118.45;;;48.00;;
80926;SDS011;70385;44.538;18.532;2024-02-14T06:23:02;149.55;;;57.55;;
80926;SDS011;70385;44.538;18.532;2024-02-14T06:25:29;129.70;;;49.50;;
80926;SDS011;70385;44.538;18.532;2024-02-14T06:27:55;112.32;;;47.60;;
80926;SDS011;70385;44.538;18.532;2024-02-14T06:30:21;95.35;;;41.08;;
80926;SDS011;70385;44.538;18.532;2024-02-14T06:32:54;85.00;;;36.45;;
80926;SDS011;70385;44.538;18.532;2024-02-14T06:35:21;76.10;;;36.88;;
80926;SDS011;70385;44.538;18.532;2024-02-14T06:37:54;76.43;;;36.33;;
80926;SDS011;70385;44.538;18.532;2024-02-14T06:40:23;77.90;;;35.33;;
80926;SDS011;70385;44.538;18.532;2024-02-14T06:42:53;68.82;;;33.50;;
80926;SDS011;70385;44.538;18.532;2024-02-14T06:45:28;59.60;;;31.15;;
80926;SDS011;70385;44.538;18.532;2024-02-14T06:47:57;65.30;;;31.42;;
80926;SDS011;70385;44.538;18.532;2024-02-14T06:50:29;67.07;;;30.70;;
80926;SDS011;70385;44.538;18.532;2024-02-14T06:53:04;76.20;;;34.55;;
80926;SDS011;70385;44.538;18.532;2024-02-14T06:55:30;61.35;;;32.53;;
80926;SDS011;70385;44.538;18.532;2024-02-14T06:58:00;68.15;;;32.20;;
80926;SDS011;70385;44.538;18.532;2024-02-14T07:00:37;78.63;;;38.90;;
80926;SDS011;70385;44.538;18.532;2024-02-14T07:03:04;72.40;;;36.97;;
80926;SDS011;70385;44.538;18.532;2024-02-14T07:05:31;68.95;;;37.08;;
80926;SDS011;70385;44.538;18.532;2024-02-14T07:11:33;76.93;;;43.83;;
80926;SDS011;70385;44.538;18.532;2024-02-14T07:14:00;98.60;;;50.67;;
80926;SDS011;70385;44.538;18.532;2024-02-14T07:16:34;103.20;;;52.05;;
80926;SDS011;70385;44.538;18.532;2024-02-14T07:19:03;74.38;;;39.88;;
80926;SDS011;70385;44.538;18.532;2024-02-14T07:21:41;67.43;;;39.05;;
80926;SDS011;70385;44.538;18.532;2024-02-14T07:24:16;82.43;;;44.30;;
80926;SDS011;70385;44.538;18.532;2024-02-14T07:26:52;101.13;;;47.83;;
80926;SDS011;70385;44.538;18.532;2024-02-14T07:29:23;85.95;;;43.35;;
80926;SDS011;70385;44.538;18.532;2024-02-14T07:31:52;96.47;;;45.75;;
80926;SDS011;70385;44.538;18.532;2024-02-14T07:34:18;91.45;;;43.80;;
80926;SDS011;70385;44.538;18.532;2024-02-14T07:36:50;101.78;;;49.72;;
80926;SDS011;70385;44.538;18.532;2024-02-14T07:39:17;117.80;;;57.97;;
80926;SDS011;70385;44.538;18.532;2024-02-14T07:41:48;128.85;;;62.40;;
80926;SDS011;70385;44.538;18.532;2024-02-14T07:44:15;170.93;;;75.72;;
80926;SDS011;70385;44.538;18.532;2024-02-14T07:46:41;172.43;;;79.25;;
80926;SDS011;70385;44.538;18.532;2024-02-14T07:49:08;197.25;;;88.93;;
80926;SDS011;70385;44.538;18.532;2024-02-14T07:51:39;189.13;;;87.15;;
80926;SDS011;70385;44.538;18.532;2024-02-14T07:54:06;190.13;;;81.82;;
80926;SDS011;70385;44.538;18.532;2024-02-14T07:56:35;194.60;;;77.47;;
80926;SDS011;70385;44.538;18.532;2024-02-14T07:59:03;171.57;;;71.68;;
80926;SDS011;70385;44.538;18.532;2024-02-14T08:01:34;161.52;;;68.78;;
80926;SDS011;70385;44.538;18.532;2024-02-14T08:04:00;145.25;;;62.63;;
80926;SDS011;70385;44.538;18.532;2024-02-14T08:09:03;183.02;;;62.95;;
80926;SDS011;70385;44.538;18.532;2024-02-14T08:11:35;193.48;;;65.65;;
80926;SDS011;70385;44.538;18.532;2024-02-14T08:14:57;169.85;;;63.60;;
80926;SDS011;70385;44.538;18.532;2024-02-14T08:18:29;168.05;;;57.60;;
80926;SDS011;70385;44.538;18.532;2024-02-14T08:21:00;137.45;;;46.00;;
80926;SDS011;70385;44.538;18.532;2024-02-14T08:23:32;80.60;;;31.13;;
80926;SDS011;70385;44.538;18.532;2024-02-14T08:26:18;87.95;;;33.70;;
80926;SDS011;70385;44.538;18.532;2024-02-14T08:29:10;87.47;;;33.17;;
80926;SDS011;70385;44.538;18.532;2024-02-14T08:34:24;59.25;;;25.42;;
80926;SDS011;70385;44.538;18.532;2024-02-14T08:37:20;52.92;;;22.23;;
80926;SDS011;70385;44.538;18.532;2024-02-14T08:40:58;27.25;;;12.55;;
80926;SDS011;70385;44.538;18.532;2024-02-14T08:43:26;21.90;;;9.63;;
80926;SDS011;70385;44.538;18.532;2024-02-14T08:46:27;17.05;;;8.95;;
80926;SDS011;70385;44.538;18.532;2024-02-14T08:49:33;40.20;;;16.73;;
80926;SDS011;70385;44.538;18.532;2024-02-14T08:52:25;48.17;;;19.05;;
80926;SDS011;70385;44.538;18.532;2024-02-14T08:58:33;68.63;;;28.67;;
80926;SDS011;70385;44.538;18.532;2024-02-14T09:05:58;19.63;;;9.13;;
80926;SDS011;70385;44.538;18.532;2024-02-14T09:08:38;13.30;;;6.25;;
80926;SDS011;70385;44.538;18.532;2024-02-14T09:11:06;10.27;;;5.80;;
80926;SDS011;70385;44.538;18.532;2024-02-14T09:13:43;11.00;;;6.75;;
80926;SDS011;70385;44.538;18.532;2024-02-14T09:16:40;12.43;;;5.22;;
80926;SDS011;70385;44.538;18.532;2024-02-14T09:19:06;9.23;;;5.88;;
80926;SDS011;70385;44.538;18.532;2024-02-14T09:24:18;10.93;;;5.55;;
80926;SDS011;70385;44.538;18.532;2024-02-14T09:26:47;11.48;;;5.65;;
80926;SDS011;70385;44.538;18.532;2024-02-14T09:29:26;11.52;;;7.03;;
80926;SDS011;70385;44.538;18.532;2024-02-14T09:32:00;25.08;;;9.23;;
80926;SDS011;70385;44.538;18.532;2024-02-14T09:34:26;12.10;;;7.28;;
80926;SDS011;70385;44.538;18.532;2024-02-14T09:36:52;10.93;;;6.13;;
80926;SDS011;70385;44.538;18.532;2024-02-14T09:39:30;18.10;;;9.18;;
80926;SDS011;70385;44.538;18.532;2024-02-14T09:41:59;58.00;;;17.98;;
80926;SDS011;70385;44.538;18.532;2024-02-14T09:44:35;33.60;;;15.18;;
80926;SDS011;70385;44.538;18.532;2024-02-14T09:47:03;21.23;;;9.27;;
80926;SDS011;70385;44.538;18.532;2024-02-14T09:49:35;17.17;;;8.57;;
80926;SDS011;70385;44.538;18.532;2024-02-14T09:52:10;16.45;;;8.18;;
80926;SDS011;70385;44.538;18.532;2024-02-14T10:02:49;44.13;;;15.70;;
80926;SDS011;70385;44.538;18.532;2024-02-14T10:05:30;21.20;;;9.68;;
80926;SDS011;70385;44.538;18.532;2024-02-14T10:08:43;14.07;;;7.65;;
80926;SDS011;70385;44.538;18.532;2024-02-14T10:11:14;14.73;;;7.38;;
80926;SDS011;70385;44.538;18.532;2024-02-14T10:14:55;39.38;;;14.90;;
80926;SDS011;70385;44.538;18.532;2024-02-14T10:17:26;15.65;;;7.63;;
80926;SDS011;70385;44.538;18.532;2024-02-14T10:20:09;20.58;;;10.07;;
80926;SDS011;70385;44.538;18.532;2024-02-14T10:23:07;20.25;;;9.25;;
80926;SDS011;70385;44.538;18.532;2024-02-14T10:26:12;22.63;;;9.57;;
80926;SDS011;70385;44.538;18.532;2024-02-14T10:28:45;24.45;;;11.60;;
80926;SDS011;70385;44.538;18.532;2024-02-14T10:31:13;21.75;;;10.07;;
80926;SDS011;70385;44.538;18.532;2024-02-14T10:33:43;24.05;;;9.32;;
80926;SDS011;70385;44.538;18.532;2024-02-14T10:36:15;18.17;;;9.32;;
80926;SDS011;70385;44.538;18.532;2024-02-14T10:38:42;30.00;;;13.82;;
80926;SDS011;70385;44.538;18.532;2024-02-14T10:41:16;24.92;;;11.57;;
80926;SDS011;70385;44.538;18.532;2024-02-14T10:43:46;8.88;;;5.70;;
80926;SDS011;70385;44.538;18.532;2024-02-14T10:46:15;7.82;;;5.40;;
80926;SDS011;70385;44.538;18.532;2024-02-14T10:48:52;11.10;;;5.70;;
80926;SDS011;70385;44.538;18.532;2024-02-14T10:51:33;12.23;;;5.85;;
80926;SDS011;70385;44.538;18.532;2024-02-14T10:54:01;10.82;;;6.30;;
80926;SDS011;70385;44.538;18.532;2024-02-14T10:56:36;10.82;;;6.43;;
80926;SDS011;70385;44.538;18.532;2024-02-14T11:01:41;9.57;;;5.82;;
80926;SDS011;70385;44.538;18.532;2024-02-14T11:04:18;12.18;;;6.80;;
80926;SDS011;70385;44.538;18.532;2024-02-14T11:06:52;22.83;;;6.68;;
80926;SDS011;70385;44.538;18.532;2024-02-14T11:09:31;17.63;;;8.63;;
80926;SDS011;70385;44.538;18.532;2024-02-14T11:12:02;35.08;;;13.63;;
80926;SDS011;70385;44.538;18.532;2024-02-14T11:14:32;49.25;;;17.90;;
80926;SDS011;70385;44.538;18.532;2024-02-14T11:17:01;18.85;;;7.05;;
80926;SDS011;70385;44.538;18.532;2024-02-14T11:19:34;8.75;;;5.07;;
80926;SDS011;70385;44.538;18.532;2024-02-14T11:24:37;9.82;;;5.55;;
80926;SDS011;70385;44.538;18.532;2024-02-14T11:27:09;18.60;;;8.25;;
80926;SDS011;70385;44.538;18.532;2024-02-14T11:34:34;22.48;;;10.82;;
80926;SDS011;70385;44.538;18.532;2024-02-14T11:37:03;12.93;;;6.22;;
80926;SDS011;70385;44.538;18.532;2024-02-14T11:39:39;4.85;;;3.42;;
80926;SDS011;70385;44.538;18.532;2024-02-14T11:42:20;6.03;;;3.83;;
80926;SDS011;70385;44.538;18.532;2024-02-14T11:45:16;20.05;;;8.88;;
80926;SDS011;70385;44.538;18.532;2024-02-14T11:47:45;23.77;;;9.93;;
80926;SDS011;70385;44.538;18.532;2024-02-14T11:50:12;17.65;;;7.28;;
80926;SDS011;70385;44.538;18.532;2024-02-14T11:52:38;5.20;;;3.72;;
80926;SDS011;70385;44.538;18.532;2024-02-14T11:55:17;22.30;;;8.25;;
80926;SDS011;70385;44.538;18.532;2024-02-14T11:57:43;14.40;;;6.05;;
80926;SDS011;70385;44.538;18.532;2024-02-14T12:00:09;14.07;;;5.13;;
80926;SDS011;70385;44.538;18.532;2024-02-14T12:02:40;15.35;;;7.05;;
80926;SDS011;70385;44.538;18.532;2024-02-14T12:05:19;7.70;;;4.18;;
80926;SDS011;70385;44.538;18.532;2024-02-14T12:07:46;13.50;;;8.07;;
80926;SDS011;70385;44.538;18.532;2024-02-14T12:10:54;13.38;;;6.63;;
80926;SDS011;70385;44.538;18.532;2024-02-14T12:13:21;17.13;;;8.15;;
80926;SDS011;70385;44.538;18.532;2024-02-14T12:15:50;7.78;;;4.47;;
80926;SDS011;70385;44.538;18.532;2024-02-14T12:18:24;12.90;;;5.47;;
80926;SDS011;70385;44.538;18.532;2024-02-14T12:21:05;12.95;;;6.72;;
80926;SDS011;70385;44.538;18.532;2024-02-14T12:23:35;22.30;;;10.43;;
80926;SDS011;70385;44.538;18.532;2024-02-14T12:26:03;16.33;;;7.55;;
80926;SDS011;70385;44.538;18.532;2024-02-14T12:28:32;19.02;;;8.18;;
80926;SDS011;70385;44.538;18.532;2024-02-14T12:31:02;14.45;;;6.53;;
80926;SDS011;70385;44.538;18.532;2024-02-14T12:33:29;18.13;;;7.40;;
80926;SDS011;70385;44.538;18.532;2024-02-14T12:36:03;15.90;;;6.90;;
80926;SDS011;70385;44.538;18.532;2024-02-14T12:38:35;16.80;;;5.93;;
80926;SDS011;70385;44.538;18.532;2024-02-14T12:41:33;9.52;;;5.43;;
80926;SDS011;70385;44.538;18.532;2024-02-14T12:44:16;6.13;;;3.95;;
80926;SDS011;70385;44.538;18.532;2024-02-14T12:46:42;13.63;;;6.47;;
80926;SDS011;70385;44.538;18.532;2024-02-14T12:49:08;23.45;;;10.50;;
80926;SDS011;70385;44.538;18.532;2024-02-14T12:51:34;14.50;;;6.38;;
80926;SDS011;70385;44.538;18.532;2024-02-14T12:54:01;7.70;;;5.00;;
80926;SDS011;70385;44.538;18.532;2024-02-14T12:56:34;18.95;;;9.13;;
80926;SDS011;70385;44.538;18.532;2024-02-14T12:59:01;11.75;;;6.25;;
80926;SDS011;70385;44.538;18.532;2024-02-14T13:01:27;6.68;;;4.63;;
80926;SDS011;70385;44.538;18.532;2024-02-14T13:03:53;8.90;;;5.40;;
80926;SDS011;70385;44.538;18.532;2024-02-14T13:06:19;11.32;;;5.50;;
80926;SDS011;70385;44.538;18.532;2024-02-14T13:08:46;10.07;;;4.90;;
80926;SDS011;70385;44.538;18.532;2024-02-14T13:11:15;16.92;;;6.55;;
80926;SDS011;70385;44.538;18.532;2024-02-14T13:13:47;15.23;;;6.75;;
80926;SDS011;70385;44.538;18.532;2024-02-14T13:16:34;14.57;;;7.22;;
80926;SDS011;70385;44.538;18.532;2024-02-14T13:19:29;10.90;;;5.50;;
80926;SDS011;70385;44.538;18.532;2024-02-14T13:21:58;8.63;;;4.97;;
80926;SDS011;70385;44.538;18.532;2024-02-14T13:24:24;17.45;;;7.40;;
80926;SDS011;70385;44.538;18.532;2024-02-14T13:26:51;7.30;;;4.13;;
80926;SDS011;70385;44.538;18.532;2024-02-14T13:29:18;7.05;;;3.95;;
80926;SDS011;70385;44.538;18.532;2024-02-14T13:31:55;11.23;;;5.70;;
80926;SDS011;70385;44.538;18.532;2024-02-14T13:34:24;5.40;;;3.72;;
80926;SDS011;70385;44.538;18.532;2024-02-14T13:36:53;6.50;;;3.95;;
80926;SDS011;70385;44.538;18.532;2024-02-14T13:39:43;8.57;;;3.88;;
80926;SDS011;70385;44.538;18.532;2024-02-14T13:42:34;11.68;;;5.13;;
80926;SDS011;70385;44.538;18.532;2024-02-14T13:45:18;14.48;;;6.45;;
80926;SDS011;70385;44.538;18.532;2024-02-14T13:48:02;15.18;;;6.05;;
80926;SDS011;70385;44.538;18.532;2024-02-14T13:50:43;11.52;;;5.30;;
80926;SDS011;70385;44.538;18.532;2024-02-14T13:56:21;10.30;;;3.88;;
80926;SDS011;70385;44.538;18.532;2024-02-14T13:58:54;10.40;;;4.60;;
80926;SDS011;70385;44.538;18.532;2024-02-14T14:01:30;8.38;;;3.72;;
80926;SDS011;70385;44.538;18.532;2024-02-14T14:04:03;9.18;;;4.57;;
80926;SDS011;70385;44.538;18.532;2024-02-14T14:09:32;15.25;;;5.75;;
80926;SDS011;70385;44.538;18.532;2024-02-14T14:12:01;15.63;;;8.38;;
80926;SDS011;70385;44.538;18.532;2024-02-14T14:14:35;9.15;;;5.25;;
80926;SDS011;70385;44.538;18.532;2024-02-14T14:17:02;6.50;;;4.07;;
80926;SDS011;70385;44.538;18.532;2024-02-14T14:19:28;8.80;;;4.13;;
80926;SDS011;70385;44.538;18.532;2024-02-14T14:22:02;6.18;;;3.63;;
80926;SDS011;70385;44.538;18.532;2024-02-14T14:24:37;5.20;;;2.97;;
80926;SDS011;70385;44.538;18.532;2024-02-14T14:27:06;4.97;;;3.30;;
80926;SDS011;70385;44.538;18.532;2024-02-14T14:29:42;9.13;;;3.58;;
80926;SDS011;70385;44.538;18.532;2024-02-14T14:32:15;5.22;;;3.22;;
80926;SDS011;70385;44.538;18.532;2024-02-14T14:34:42;10.43;;;4.72;;
80926;SDS011;70385;44.538;18.532;2024-02-14T14:37:13;5.75;;;3.00;;
80926;SDS011;70385;44.538;18.532;2024-02-14T14:39:40;6.88;;;3.95;;
80926;SDS011;70385;44.538;18.532;2024-02-14T14:42:12;5.53;;;3.20;;
80926;SDS011;70385;44.538;18.532;2024-02-14T14:44:44;6.13;;;3.43;;
80926;SDS011;70385;44.538;18.532;2024-02-14T14:47:10;4.53;;;2.67;;
80926;SDS011;70385;44.538;18.532;2024-02-14T14:49:36;6.70;;;3.20;;
80926;SDS011;70385;44.538;18.532;2024-02-14T14:52:07;8.98;;;4.15;;
80926;SDS011;70385;44.538;18.532;2024-02-14T14:54:33;9.68;;;4.03;;
80926;SDS011;70385;44.538;18.532;2024-02-14T14:57:02;7.57;;;4.43;;
80926;SDS011;70385;44.538;18.532;2024-02-14T14:59:32;10.63;;;4.13;;
80926;SDS011;70385;44.538;18.532;2024-02-14T15:02:04;7.65;;;4.32;;
80926;SDS011;70385;44.538;18.532;2024-02-14T15:04:36;10.50;;;4.45;;
80926;SDS011;70385;44.538;18.532;2024-02-14T15:07:09;28.05;;;10.82;;
80926;SDS011;70385;44.538;18.532;2024-02-14T15:09:38;14.80;;;7.78;;
80926;SDS011;70385;44.538;18.532;2024-02-14T15:12:04;12.52;;;5.68;;
80926;SDS011;70385;44.538;18.532;2024-02-14T15:14:31;15.73;;;6.15;;
80926;SDS011;70385;44.538;18.532;2024-02-14T15:16:58;13.82;;;6.72;;
80926;SDS011;70385;44.538;18.532;2024-02-14T15:19:25;10.20;;;5.10;;
80926;SDS011;70385;44.538;18.532;2024-02-14T15:21:51;13.07;;;6.20;;
80926;SDS011;70385;44.538;18.532;2024-02-14T15:24:20;14.98;;;6.38;;
80926;SDS011;70385;44.538;18.532;2024-02-14T15:26:46;12.65;;;6.45;;
80926;SDS011;70385;44.538;18.532;2024-02-14T15:29:17;14.90;;;6.18;;
80926;SDS011;70385;44.538;18.532;2024-02-14T15:32:03;18.00;;;8.32;;
80926;SDS011;70385;44.538;18.532;2024-02-14T15:34:49;13.82;;;7.90;;
80926;SDS011;70385;44.538;18.532;2024-02-14T15:37:15;12.55;;;6.57;;
80926;SDS011;70385;44.538;18.532;2024-02-14T15:39:43;23.00;;;10.65;;
80926;SDS011;70385;44.538;18.532;2024-02-14T15:42:09;41.22;;;16.52;;
80926;SDS011;70385;44.538;18.532;2024-02-14T15:44:40;34.70;;;16.25;;
80926;SDS011;70385;44.538;18.532;2024-02-14T15:47:18;36.15;;;16.83;;
80926;SDS011;70385;44.538;18.532;2024-02-14T15:49:53;46.35;;;17.85;;
80926;SDS011;70385;44.538;18.532;2024-02-14T15:52:20;62.47;;;25.88;;
80926;SDS011;70385;44.538;18.532;2024-02-14T15:54:46;54.50;;;22.73;;
80926;SDS011;70385;44.538;18.532;2024-02-14T15:57:15;58.67;;;23.25;;
80926;SDS011;70385;44.538;18.532;2024-02-14T15:59:44;62.65;;;24.45;;
80926;SDS011;70385;44.538;18.532;2024-02-14T16:02:16;65.63;;;27.10;;
80926;SDS011;70385;44.538;18.532;2024-02-14T16:04:42;56.70;;;23.02;;
80926;SDS011;70385;44.538;18.532;2024-02-14T16:07:11;43.80;;;17.88;;
80926;SDS011;70385;44.538;18.532;2024-02-14T16:09:44;36.13;;;16.30;;
80926;SDS011;70385;44.538;18.532;2024-02-14T16:12:11;121.75;;;52.65;;